sensor_id;sensor_type;location;lat;lon;timestamp;temperature;humidity
21807;DHT22;11065;50.786;7.840;2023-08-01T00:01:50;20.00;62.80
21807;DHT22;11065;50.786;7.840;2023-08-01T00:04:18;20.00;62.60
21807;DHT22;11065;50.786;7.840;2023-08-01T00:06:46;20.00;62.60
21807;DHT22;11065;50.786;7.840;2023-08-01T00:09:14;20.00;62.70
21807;DHT22;11065;50.786;7.840;2023-08-01T00:11:42;20.00;62.70
21807;DHT22;11065;50.786;7.840;2023-08-01T00:14:10;20.00;63.20
21807;DHT22;11065;50.786;7.840;2023-08-01T00:16:40;20.00;63.20
21807;DHT22;11065;50.786;7.840;2023-08-01T00:19:08;20.00;63.20
21807;DHT22;11065;50.786;7.840;2023-08-01T00:21:36;20.00;63.10
21807;DHT22;11065;50.786;7.840;2023-08-01T00:24:04;20.00;63.20
21807;DHT22;11065;50.786;7.840;2023-08-01T00:26:34;20.00;63.30
21807;DHT22;11065;50.786;7.840;2023-08-01T00:29:02;20.00;63.30
21807;DHT22;11065;50.786;7.840;2023-08-01T00:31:30;20.00;63.40
21807;DHT22;11065;50.786;7.840;2023-08-01T00:34:00;20.00;63.60
21807;DHT22;11065;50.786;7.840;2023-08-01T00:36:27;20.00;64.00
21807;DHT22;11065;50.786;7.840;2023-08-01T00:38:55;20.00;64.20
21807;DHT22;11065;50.786;7.840;2023-08-01T00:41:23;19.90;64.00
21807;DHT22;11065;50.786;7.840;2023-08-01T00:43:51;20.00;64.00
21807;DHT22;11065;50.786;7.840;2023-08-01T00:46:19;20.00;64.10
21807;DHT22;11065;50.786;7.840;2023-08-01T00:48:48;20.00;64.20
21807;DHT22;11065;50.786;7.840;2023-08-01T00:51:18;20.00;64.40
21807;DHT22;11065;50.786;7.840;2023-08-01T00:53:46;20.00;64.70
21807;DHT22;11065;50.786;7.840;2023-08-01T00:56:14;20.00;64.60
21807;DHT22;11065;50.786;7.840;2023-08-01T00:58:42;20.00;64.70
21807;DHT22;11065;50.786;7.840;2023-08-01T01:01:10;20.00;65.00
21807;DHT22;11065;50.786;7.840;2023-08-01T01:03:38;20.00;64.60
21807;DHT22;11065;50.786;7.840;2023-08-01T01:06:12;20.00;64.60
21807;DHT22;11065;50.786;7.840;2023-08-01T01:08:43;20.00;64.70
21807;DHT22;11065;50.786;7.840;2023-08-01T01:11:12;20.00;65.10
21807;DHT22;11065;50.786;7.840;2023-08-01T01:13:41;20.00;65.40
21807;DHT22;11065;50.786;7.840;2023-08-01T01:16:09;20.00;65.50
21807;DHT22;11065;50.786;7.840;2023-08-01T01:18:36;20.00;65.30
21807;DHT22;11065;50.786;7.840;2023-08-01T01:21:06;20.00;65.20
21807;DHT22;11065;50.786;7.840;2023-08-01T01:23:34;20.00;65.20
21807;DHT22;11065;50.786;7.840;2023-08-01T01:26:03;20.00;65.30
21807;DHT22;11065;50.786;7.840;2023-08-01T01:28:32;20.00;65.20
21807;DHT22;11065;50.786;7.840;2023-08-01T01:31:02;20.00;65.20
21807;DHT22;11065;50.786;7.840;2023-08-01T01:33:30;20.10;65.40
21807;DHT22;11065;50.786;7.840;2023-08-01T01:36:00;20.10;65.30
21807;DHT22;11065;50.786;7.840;2023-08-01T01:38:29;20.10;65.50
21807;DHT22;11065;50.786;7.840;2023-08-01T01:40:57;20.10;65.50
21807;DHT22;11065;50.786;7.840;2023-08-01T01:43:25;20.10;65.40
21807;DHT22;11065;50.786;7.840;2023-08-01T01:45:53;20.10;65.40
21807;DHT22;11065;50.786;7.840;2023-08-01T01:48:22;20.10;65.40
21807;DHT22;11065;50.786;7.840;2023-08-01T01:50:50;20.10;65.40
21807;DHT22;11065;50.786;7.840;2023-08-01T01:53:18;20.10;65.30
21807;DHT22;11065;50.786;7.840;2023-08-01T01:55:47;20.10;65.30
21807;DHT22;11065;50.786;7.840;2023-08-01T01:58:15;20.10;65.40
21807;DHT22;11065;50.786;7.840;2023-08-01T02:00:43;20.10;65.40
21807;DHT22;11065;50.786;7.840;2023-08-01T02:03:11;20.10;65.40
21807;DHT22;11065;50.786;7.840;2023-08-01T02:05:39;20.10;65.50
21807;DHT22;11065;50.786;7.840;2023-08-01T02:08:08;20.10;65.70
21807;DHT22;11065;50.786;7.840;2023-08-01T02:10:36;20.10;65.50
21807;DHT22;11065;50.786;7.840;2023-08-01T02:13:06;20.10;65.40
21807;DHT22;11065;50.786;7.840;2023-08-01T02:15:34;20.10;65.50
21807;DHT22;11065;50.786;7.840;2023-08-01T02:18:03;20.20;65.50
21807;DHT22;11065;50.786;7.840;2023-08-01T02:20:31;20.10;65.70
21807;DHT22;11065;50.786;7.840;2023-08-01T02:22:59;20.10;65.90
21807;DHT22;11065;50.786;7.840;2023-08-01T02:25:27;20.20;65.70
21807;DHT22;11065;50.786;7.840;2023-08-01T02:27:55;20.10;65.70
21807;DHT22;11065;50.786;7.840;2023-08-01T02:30:24;20.20;65.70
21807;DHT22;11065;50.786;7.840;2023-08-01T02:32:52;20.20;66.10
21807;DHT22;11065;50.786;7.840;2023-08-01T02:35:20;20.20;65.80
21807;DHT22;11065;50.786;7.840;2023-08-01T02:37:48;20.20;65.90
21807;DHT22;11065;50.786;7.840;2023-08-01T02:40:16;20.20;66.00
21807;DHT22;11065;50.786;7.840;2023-08-01T02:42:44;20.20;65.90
21807;DHT22;11065;50.786;7.840;2023-08-01T02:45:12;20.20;66.20
21807;DHT22;11065;50.786;7.840;2023-08-01T02:47:41;20.20;66.00
21807;DHT22;11065;50.786;7.840;2023-08-01T02:50:09;20.30;66.40
21807;DHT22;11065;50.786;7.840;2023-08-01T02:52:37;20.20;66.20
21807;DHT22;11065;50.786;7.840;2023-08-01T02:55:06;20.20;66.40
21807;DHT22;11065;50.786;7.840;2023-08-01T02:57:36;20.20;66.40
21807;DHT22;11065;50.786;7.840;2023-08-01T03:00:05;20.20;66.80
21807;DHT22;11065;50.786;7.840;2023-08-01T03:02:38;20.20;66.70
21807;DHT22;11065;50.786;7.840;2023-08-01T03:05:09;20.20;66.30
21807;DHT22;11065;50.786;7.840;2023-08-01T03:07:38;20.20;66.70
21807;DHT22;11065;50.786;7.840;2023-08-01T03:10:07;20.20;66.10
21807;DHT22;11065;50.786;7.840;2023-08-01T03:12:40;20.20;66.30
21807;DHT22;11065;50.786;7.840;2023-08-01T03:15:09;20.20;66.10
21807;DHT22;11065;50.786;7.840;2023-08-01T03:17:37;20.20;66.00
21807;DHT22;11065;50.786;7.840;2023-08-01T03:20:07;20.10;66.30
21807;DHT22;11065;50.786;7.840;2023-08-01T03:22:38;20.10;66.30
21807;DHT22;11065;50.786;7.840;2023-08-01T03:25:07;20.10;66.40
21807;DHT22;11065;50.786;7.840;2023-08-01T03:27:35;20.10;66.50
21807;DHT22;11065;50.786;7.840;2023-08-01T03:30:04;20.10;66.70
21807;DHT22;11065;50.786;7.840;2023-08-01T03:32:35;20.10;67.00
21807;DHT22;11065;50.786;7.840;2023-08-01T03:35:05;20.10;67.10
21807;DHT22;11065;50.786;7.840;2023-08-01T03:37:34;20.10;67.10
21807;DHT22;11065;50.786;7.840;2023-08-01T03:40:05;20.10;67.20
21807;DHT22;11065;50.786;7.840;2023-08-01T03:42:35;20.10;67.10
21807;DHT22;11065;50.786;7.840;2023-08-01T03:45:04;20.10;67.00
21807;DHT22;11065;50.786;7.840;2023-08-01T03:47:32;20.10;67.00
21807;DHT22;11065;50.786;7.840;2023-08-01T03:50:01;20.10;67.00
21807;DHT22;11065;50.786;7.840;2023-08-01T03:52:29;20.10;66.80
21807;DHT22;11065;50.786;7.840;2023-08-01T03:54:59;20.10;66.70
21807;DHT22;11065;50.786;7.840;2023-08-01T03:57:27;20.10;66.80
21807;DHT22;11065;50.786;7.840;2023-08-01T03:59:55;20.20;66.80
21807;DHT22;11065;50.786;7.840;2023-08-01T04:02:23;20.10;66.20
21807;DHT22;11065;50.786;7.840;2023-08-01T04:04:51;20.10;65.90
21807;DHT22;11065;50.786;7.840;2023-08-01T04:07:20;20.00;65.50
21807;DHT22;11065;50.786;7.840;2023-08-01T04:09:48;20.00;65.40
21807;DHT22;11065;50.786;7.840;2023-08-01T04:12:18;20.00;65.30
21807;DHT22;11065;50.786;7.840;2023-08-01T04:14:45;20.00;65.30
21807;DHT22;11065;50.786;7.840;2023-08-01T04:17:13;19.90;65.20
21807;DHT22;11065;50.786;7.840;2023-08-01T04:19:41;19.90;65.00
21807;DHT22;11065;50.786;7.840;2023-08-01T04:22:09;19.90;64.80
21807;DHT22;11065;50.786;7.840;2023-08-01T04:24:37;19.80;64.50
21807;DHT22;11065;50.786;7.840;2023-08-01T04:27:06;19.80;64.60
21807;DHT22;11065;50.786;7.840;2023-08-01T04:29:35;19.70;64.30
21807;DHT22;11065;50.786;7.840;2023-08-01T04:32:03;19.70;64.30
21807;DHT22;11065;50.786;7.840;2023-08-01T04:34:31;19.70;64.40
21807;DHT22;11065;50.786;7.840;2023-08-01T04:37:00;19.70;64.40
21807;DHT22;11065;50.786;7.840;2023-08-01T04:39:28;19.60;64.30
21807;DHT22;11065;50.786;7.840;2023-08-01T04:41:56;19.60;64.40
21807;DHT22;11065;50.786;7.840;2023-08-01T04:44:24;19.60;64.40
21807;DHT22;11065;50.786;7.840;2023-08-01T04:46:53;19.60;64.40
21807;DHT22;11065;50.786;7.840;2023-08-01T04:49:21;19.50;64.20
21807;DHT22;11065;50.786;7.840;2023-08-01T04:51:50;19.50;64.20
21807;DHT22;11065;50.786;7.840;2023-08-01T04:54:18;19.50;64.20
21807;DHT22;11065;50.786;7.840;2023-08-01T04:56:46;19.50;64.10
21807;DHT22;11065;50.786;7.840;2023-08-01T04:59:14;19.50;64.20
21807;DHT22;11065;50.786;7.840;2023-08-01T05:01:42;19.50;64.20
21807;DHT22;11065;50.786;7.840;2023-08-01T05:04:12;19.50;64.20
21807;DHT22;11065;50.786;7.840;2023-08-01T05:06:40;19.40;64.10
21807;DHT22;11065;50.786;7.840;2023-08-01T05:09:08;19.40;64.00
21807;DHT22;11065;50.786;7.840;2023-08-01T05:11:36;19.40;64.00
21807;DHT22;11065;50.786;7.840;2023-08-01T05:14:04;19.40;64.00
21807;DHT22;11065;50.786;7.840;2023-08-01T05:16:32;19.40;63.90
21807;DHT22;11065;50.786;7.840;2023-08-01T05:19:00;19.40;64.00
21807;DHT22;11065;50.786;7.840;2023-08-01T05:21:30;19.40;63.90
21807;DHT22;11065;50.786;7.840;2023-08-01T05:23:58;19.40;63.90
21807;DHT22;11065;50.786;7.840;2023-08-01T05:26:25;19.40;64.20
21807;DHT22;11065;50.786;7.840;2023-08-01T05:28:53;19.40;63.90
21807;DHT22;11065;50.786;7.840;2023-08-01T05:31:21;19.40;63.90
21807;DHT22;11065;50.786;7.840;2023-08-01T05:33:49;19.40;63.90
21807;DHT22;11065;50.786;7.840;2023-08-01T05:36:17;19.40;63.90
21807;DHT22;11065;50.786;7.840;2023-08-01T05:38:46;19.40;63.70
21807;DHT22;11065;50.786;7.840;2023-08-01T05:41:14;19.40;63.70
21807;DHT22;11065;50.786;7.840;2023-08-01T05:43:42;19.40;63.70
21807;DHT22;11065;50.786;7.840;2023-08-01T05:46:10;19.40;63.50
21807;DHT22;11065;50.786;7.840;2023-08-01T05:48:38;19.40;63.50
21807;DHT22;11065;50.786;7.840;2023-08-01T05:51:06;19.30;63.40
21807;DHT22;11065;50.786;7.840;2023-08-01T05:53:34;19.30;63.40
21807;DHT22;11065;50.786;7.840;2023-08-01T05:56:04;19.30;63.50
21807;DHT22;11065;50.786;7.840;2023-08-01T05:58:32;19.30;63.40
21807;DHT22;11065;50.786;7.840;2023-08-01T06:01:00;19.30;63.20
21807;DHT22;11065;50.786;7.840;2023-08-01T06:03:28;19.30;63.00
21807;DHT22;11065;50.786;7.840;2023-08-01T06:05:56;19.30;63.50
21807;DHT22;11065;50.786;7.840;2023-08-01T06:08:24;19.30;63.20
21807;DHT22;11065;50.786;7.840;2023-08-01T06:10:52;19.30;63.30
21807;DHT22;11065;50.786;7.840;2023-08-01T06:13:21;19.30;63.20
21807;DHT22;11065;50.786;7.840;2023-08-01T06:15:49;19.30;63.30
21807;DHT22;11065;50.786;7.840;2023-08-01T06:18:17;19.20;63.30
21807;DHT22;11065;50.786;7.840;2023-08-01T06:20:45;19.30;63.40
21807;DHT22;11065;50.786;7.840;2023-08-01T06:23:13;19.30;63.00
21807;DHT22;11065;50.786;7.840;2023-08-01T06:25:41;19.30;62.80
21807;DHT22;11065;50.786;7.840;2023-08-01T06:28:09;19.20;62.70
21807;DHT22;11065;50.786;7.840;2023-08-01T06:30:39;19.30;62.70
21807;DHT22;11065;50.786;7.840;2023-08-01T06:33:06;19.20;63.40
21807;DHT22;11065;50.786;7.840;2023-08-01T06:35:35;19.20;62.60
21807;DHT22;11065;50.786;7.840;2023-08-01T06:38:03;19.20;62.60
21807;DHT22;11065;50.786;7.840;2023-08-01T06:40:31;19.30;62.80
21807;DHT22;11065;50.786;7.840;2023-08-01T06:42:58;19.20;62.70
21807;DHT22;11065;50.786;7.840;2023-08-01T06:45:26;19.20;62.40
21807;DHT22;11065;50.786;7.840;2023-08-01T06:47:56;19.20;62.40
21807;DHT22;11065;50.786;7.840;2023-08-01T06:50:24;19.20;62.60
21807;DHT22;11065;50.786;7.840;2023-08-01T06:52:52;19.20;62.70
21807;DHT22;11065;50.786;7.840;2023-08-01T06:55:19;19.20;63.10
21807;DHT22;11065;50.786;7.840;2023-08-01T06:57:48;19.20;63.10
21807;DHT22;11065;50.786;7.840;2023-08-01T07:00:16;19.20;63.10
21807;DHT22;11065;50.786;7.840;2023-08-01T07:02:44;19.30;63.40
21807;DHT22;11065;50.786;7.840;2023-08-01T07:05:13;19.30;63.50
21807;DHT22;11065;50.786;7.840;2023-08-01T07:07:41;19.40;63.50
21807;DHT22;11065;50.786;7.840;2023-08-01T07:10:10;19.50;63.20
21807;DHT22;11065;50.786;7.840;2023-08-01T07:12:37;19.60;63.10
21807;DHT22;11065;50.786;7.840;2023-08-01T07:15:07;19.60;62.70
21807;DHT22;11065;50.786;7.840;2023-08-01T07:17:35;19.70;62.40
21807;DHT22;11065;50.786;7.840;2023-08-01T07:20:04;19.70;62.30
21807;DHT22;11065;50.786;7.840;2023-08-01T07:22:33;19.70;62.00
21807;DHT22;11065;50.786;7.840;2023-08-01T07:25:01;19.80;62.20
21807;DHT22;11065;50.786;7.840;2023-08-01T07:27:29;19.80;62.70
21807;DHT22;11065;50.786;7.840;2023-08-01T07:29:57;19.90;62.70
21807;DHT22;11065;50.786;7.840;2023-08-01T07:32:26;20.00;62.70
21807;DHT22;11065;50.786;7.840;2023-08-01T07:34:54;20.00;62.30
21807;DHT22;11065;50.786;7.840;2023-08-01T07:37:22;20.10;61.60
21807;DHT22;11065;50.786;7.840;2023-08-01T07:39:51;20.10;61.60
21807;DHT22;11065;50.786;7.840;2023-08-01T07:42:22;20.20;61.20
21807;DHT22;11065;50.786;7.840;2023-08-01T07:44:50;20.20;61.10
21807;DHT22;11065;50.786;7.840;2023-08-01T07:47:18;20.30;61.20
21807;DHT22;11065;50.786;7.840;2023-08-01T07:49:46;20.30;60.40
21807;DHT22;11065;50.786;7.840;2023-08-01T07:52:13;20.30;60.70
21807;DHT22;11065;50.786;7.840;2023-08-01T07:54:41;20.30;60.70
21807;DHT22;11065;50.786;7.840;2023-08-01T07:57:11;20.30;60.40
21807;DHT22;11065;50.786;7.840;2023-08-01T07:59:39;20.30;60.00
21807;DHT22;11065;50.786;7.840;2023-08-01T08:02:07;20.40;60.30
21807;DHT22;11065;50.786;7.840;2023-08-01T08:04:35;20.40;60.90
21807;DHT22;11065;50.786;7.840;2023-08-01T08:07:03;20.50;61.10
21807;DHT22;11065;50.786;7.840;2023-08-01T08:09:31;20.50;60.70
21807;DHT22;11065;50.786;7.840;2023-08-01T08:12:00;20.60;60.60
21807;DHT22;11065;50.786;7.840;2023-08-01T08:14:29;20.60;60.90
21807;DHT22;11065;50.786;7.840;2023-08-01T08:16:57;20.70;60.40
21807;DHT22;11065;50.786;7.840;2023-08-01T08:19:25;20.80;60.50
21807;DHT22;11065;50.786;7.840;2023-08-01T08:21:53;20.90;60.50
21807;DHT22;11065;50.786;7.840;2023-08-01T08:24:21;21.00;60.20
21807;DHT22;11065;50.786;7.840;2023-08-01T08:26:49;21.10;60.70
21807;DHT22;11065;50.786;7.840;2023-08-01T08:29:17;21.20;60.60
21807;DHT22;11065;50.786;7.840;2023-08-01T08:31:46;21.30;60.10
21807;DHT22;11065;50.786;7.840;2023-08-01T08:34:14;21.50;59.50
21807;DHT22;11065;50.786;7.840;2023-08-01T08:36:42;21.60;59.40
21807;DHT22;11065;50.786;7.840;2023-08-01T08:39:10;21.60;59.00
21807;DHT22;11065;50.786;7.840;2023-08-01T08:41:39;21.70;58.80
21807;DHT22;11065;50.786;7.840;2023-08-01T08:44:14;21.70;58.50
21807;DHT22;11065;50.786;7.840;2023-08-01T08:46:47;21.80;58.50
21807;DHT22;11065;50.786;7.840;2023-08-01T08:49:17;21.90;58.90
21807;DHT22;11065;50.786;7.840;2023-08-01T08:51:47;22.10;58.70
21807;DHT22;11065;50.786;7.840;2023-08-01T08:54:16;22.20;58.00
21807;DHT22;11065;50.786;7.840;2023-08-01T08:56:44;22.20;57.30
21807;DHT22;11065;50.786;7.840;2023-08-01T08:59:12;22.20;57.00
21807;DHT22;11065;50.786;7.840;2023-08-01T09:01:40;22.10;56.70
21807;DHT22;11065;50.786;7.840;2023-08-01T09:04:10;22.00;56.60
21807;DHT22;11065;50.786;7.840;2023-08-01T09:06:44;21.90;56.60
21807;DHT22;11065;50.786;7.840;2023-08-01T09:09:17;21.70;56.40
21807;DHT22;11065;50.786;7.840;2023-08-01T09:11:46;21.60;56.60
21807;DHT22;11065;50.786;7.840;2023-08-01T09:14:16;21.50;56.80
21807;DHT22;11065;50.786;7.840;2023-08-01T09:16:45;21.40;56.90
21807;DHT22;11065;50.786;7.840;2023-08-01T09:19:18;21.30;57.00
21807;DHT22;11065;50.786;7.840;2023-08-01T09:21:46;21.20;57.20
21807;DHT22;11065;50.786;7.840;2023-08-01T09:24:16;21.20;57.60
21807;DHT22;11065;50.786;7.840;2023-08-01T09:26:45;21.20;58.00
21807;DHT22;11065;50.786;7.840;2023-08-01T09:29:16;21.30;60.20
21807;DHT22;11065;50.786;7.840;2023-08-01T09:31:44;21.80;63.40
21807;DHT22;11065;50.786;7.840;2023-08-01T09:34:20;22.40;66.50
21807;DHT22;11065;50.786;7.840;2023-08-01T09:36:48;23.10;63.90
21807;DHT22;11065;50.786;7.840;2023-08-01T09:39:17;23.90;64.40
21807;DHT22;11065;50.786;7.840;2023-08-01T09:41:46;24.60;63.70
21807;DHT22;11065;50.786;7.840;2023-08-01T09:44:16;25.20;59.40
21807;DHT22;11065;50.786;7.840;2023-08-01T09:46:44;25.60;57.00
21807;DHT22;11065;50.786;7.840;2023-08-01T09:49:23;25.70;55.70
21807;DHT22;11065;50.786;7.840;2023-08-01T09:51:51;25.70;53.80
21807;DHT22;11065;50.786;7.840;2023-08-01T09:54:20;25.60;53.50
21807;DHT22;11065;50.786;7.840;2023-08-01T09:56:50;25.40;53.00
21807;DHT22;11065;50.786;7.840;2023-08-01T09:59:20;25.20;53.30
21807;DHT22;11065;50.786;7.840;2023-08-01T10:01:50;25.20;54.80
21807;DHT22;11065;50.786;7.840;2023-08-01T10:04:19;25.40;57.00
21807;DHT22;11065;50.786;7.840;2023-08-01T10:06:54;26.00;58.30
21807;DHT22;11065;50.786;7.840;2023-08-01T10:09:22;26.70;57.70
21807;DHT22;11065;50.786;7.840;2023-08-01T10:11:52;27.40;57.60
21807;DHT22;11065;50.786;7.840;2023-08-01T10:14:20;28.30;56.90
21807;DHT22;11065;50.786;7.840;2023-08-01T10:16:51;28.80;53.90
21807;DHT22;11065;50.786;7.840;2023-08-01T10:19:19;29.00;51.40
21807;DHT22;11065;50.786;7.840;2023-08-01T10:21:49;29.00;50.40
21807;DHT22;11065;50.786;7.840;2023-08-01T10:24:23;28.90;50.70
21807;DHT22;11065;50.786;7.840;2023-08-01T10:26:52;29.10;50.90
21807;DHT22;11065;50.786;7.840;2023-08-01T10:29:20;29.40;52.30
21807;DHT22;11065;50.786;7.840;2023-08-01T10:31:52;29.90;52.70
21807;DHT22;11065;50.786;7.840;2023-08-01T10:34:20;30.40;50.00
21807;DHT22;11065;50.786;7.840;2023-08-01T10:36:57;31.00;49.30
21807;DHT22;11065;50.786;7.840;2023-08-01T10:39:27;31.60;48.80
21807;DHT22;11065;50.786;7.840;2023-08-01T10:41:59;32.10;49.30
21807;DHT22;11065;50.786;7.840;2023-08-01T10:44:28;32.50;46.90
21807;DHT22;11065;50.786;7.840;2023-08-01T10:47:00;32.50;46.10
21807;DHT22;11065;50.786;7.840;2023-08-01T10:49:36;32.40;44.60
21807;DHT22;11065;50.786;7.840;2023-08-01T10:52:17;32.20;43.80
21807;DHT22;11065;50.786;7.840;2023-08-01T10:54:46;31.90;43.10
21807;DHT22;11065;50.786;7.840;2023-08-01T10:57:17;31.70;43.90
21807;DHT22;11065;50.786;7.840;2023-08-01T10:59:45;31.50;44.00
21807;DHT22;11065;50.786;7.840;2023-08-01T11:02:20;31.50;44.60
21807;DHT22;11065;50.786;7.840;2023-08-01T11:04:55;31.60;44.00
21807;DHT22;11065;50.786;7.840;2023-08-01T11:07:26;31.90;44.80
21807;DHT22;11065;50.786;7.840;2023-08-01T11:10:07;32.20;45.20
21807;DHT22;11065;50.786;7.840;2023-08-01T11:12:36;32.50;43.00
21807;DHT22;11065;50.786;7.840;2023-08-01T11:15:06;32.70;44.70
21807;DHT22;11065;50.786;7.840;2023-08-01T11:17:36;32.90;43.90
21807;DHT22;11065;50.786;7.840;2023-08-01T11:20:05;32.80;42.20
21807;DHT22;11065;50.786;7.840;2023-08-01T11:22:36;32.70;42.10
21807;DHT22;11065;50.786;7.840;2023-08-01T11:25:04;32.40;41.40
21807;DHT22;11065;50.786;7.840;2023-08-01T11:27:34;32.10;41.40
21807;DHT22;11065;50.786;7.840;2023-08-01T11:30:02;31.90;41.40
21807;DHT22;11065;50.786;7.840;2023-08-01T11:32:35;31.60;41.50
21807;DHT22;11065;50.786;7.840;2023-08-01T11:35:04;31.30;40.90
21807;DHT22;11065;50.786;7.840;2023-08-01T11:37:32;31.00;40.70
21807;DHT22;11065;50.786;7.840;2023-08-01T11:40:02;30.60;40.70
21807;DHT22;11065;50.786;7.840;2023-08-01T11:42:31;30.20;40.60
21807;DHT22;11065;50.786;7.840;2023-08-01T11:45:10;29.80;40.60
21807;DHT22;11065;50.786;7.840;2023-08-01T11:47:45;29.30;41.00
21807;DHT22;11065;50.786;7.840;2023-08-01T11:50:13;28.80;40.90
21807;DHT22;11065;50.786;7.840;2023-08-01T11:52:45;28.20;41.50
21807;DHT22;11065;50.786;7.840;2023-08-01T11:55:20;27.80;42.30
21807;DHT22;11065;50.786;7.840;2023-08-01T11:57:53;27.40;43.10
21807;DHT22;11065;50.786;7.840;2023-08-01T12:00:22;27.30;44.80
21807;DHT22;11065;50.786;7.840;2023-08-01T12:02:50;27.60;45.70
21807;DHT22;11065;50.786;7.840;2023-08-01T12:05:23;27.90;46.40
21807;DHT22;11065;50.786;7.840;2023-08-01T12:07:51;28.40;46.70
21807;DHT22;11065;50.786;7.840;2023-08-01T12:10:21;28.90;47.20
21807;DHT22;11065;50.786;7.840;2023-08-01T12:12:50;29.40;46.70
21807;DHT22;11065;50.786;7.840;2023-08-01T12:15:18;30.00;46.50
21807;DHT22;11065;50.786;7.840;2023-08-01T12:17:46;30.50;45.80
21807;DHT22;11065;50.786;7.840;2023-08-01T12:20:15;30.90;45.00
21807;DHT22;11065;50.786;7.840;2023-08-01T12:22:43;31.30;44.30
21807;DHT22;11065;50.786;7.840;2023-08-01T12:25:11;31.60;43.40
21807;DHT22;11065;50.786;7.840;2023-08-01T12:27:40;31.90;43.00
21807;DHT22;11065;50.786;7.840;2023-08-01T12:30:09;32.10;42.10
21807;DHT22;11065;50.786;7.840;2023-08-01T12:32:37;32.30;42.30
21807;DHT22;11065;50.786;7.840;2023-08-01T12:35:05;32.30;41.70
21807;DHT22;11065;50.786;7.840;2023-08-01T12:37:33;32.30;41.10
21807;DHT22;11065;50.786;7.840;2023-08-01T12:40:02;32.30;40.90
21807;DHT22;11065;50.786;7.840;2023-08-01T12:42:30;32.20;40.30
21807;DHT22;11065;50.786;7.840;2023-08-01T12:45:00;32.10;40.20
21807;DHT22;11065;50.786;7.840;2023-08-01T12:47:28;31.90;39.90
21807;DHT22;11065;50.786;7.840;2023-08-01T12:49:57;31.70;38.80
21807;DHT22;11065;50.786;7.840;2023-08-01T12:52:25;31.40;38.80
21807;DHT22;11065;50.786;7.840;2023-08-01T12:54:53;31.00;38.40
21807;DHT22;11065;50.786;7.840;2023-08-01T12:57:21;30.50;38.30
21807;DHT22;11065;50.786;7.840;2023-08-01T12:59:50;29.90;38.20
21807;DHT22;11065;50.786;7.840;2023-08-01T13:02:19;29.50;38.00
21807;DHT22;11065;50.786;7.840;2023-08-01T13:04:47;28.90;38.40
21807;DHT22;11065;50.786;7.840;2023-08-01T13:07:15;28.40;38.80
21807;DHT22;11065;50.786;7.840;2023-08-01T13:09:43;28.00;39.10
21807;DHT22;11065;50.786;7.840;2023-08-01T13:12:11;27.80;40.30
21807;DHT22;11065;50.786;7.840;2023-08-01T13:14:39;27.70;41.10
21807;DHT22;11065;50.786;7.840;2023-08-01T13:17:07;27.80;41.70
21807;DHT22;11065;50.786;7.840;2023-08-01T13:19:36;28.00;42.00
21807;DHT22;11065;50.786;7.840;2023-08-01T13:22:05;28.20;42.10
21807;DHT22;11065;50.786;7.840;2023-08-01T13:24:33;28.50;42.40
21807;DHT22;11065;50.786;7.840;2023-08-01T13:27:01;28.70;42.30
21807;DHT22;11065;50.786;7.840;2023-08-01T13:29:29;28.90;41.20
21807;DHT22;11065;50.786;7.840;2023-08-01T13:31:57;29.00;41.00
21807;DHT22;11065;50.786;7.840;2023-08-01T13:34:25;28.90;40.70
21807;DHT22;11065;50.786;7.840;2023-08-01T13:36:54;28.80;40.00
21807;DHT22;11065;50.786;7.840;2023-08-01T13:39:23;28.60;39.90
21807;DHT22;11065;50.786;7.840;2023-08-01T13:41:51;28.30;40.20
21807;DHT22;11065;50.786;7.840;2023-08-01T13:44:19;28.00;40.50
21807;DHT22;11065;50.786;7.840;2023-08-01T13:46:47;27.70;41.70
21807;DHT22;11065;50.786;7.840;2023-08-01T13:49:15;27.40;41.60
21807;DHT22;11065;50.786;7.840;2023-08-01T13:51:43;27.00;41.80
21807;DHT22;11065;50.786;7.840;2023-08-01T13:54:13;26.70;42.20
21807;DHT22;11065;50.786;7.840;2023-08-01T13:56:41;26.60;42.90
21807;DHT22;11065;50.786;7.840;2023-08-01T13:59:09;26.50;43.20
21807;DHT22;11065;50.786;7.840;2023-08-01T14:01:37;26.40;43.90
21807;DHT22;11065;50.786;7.840;2023-08-01T14:04:05;26.50;44.70
21807;DHT22;11065;50.786;7.840;2023-08-01T14:06:33;26.60;44.90
21807;DHT22;11065;50.786;7.840;2023-08-01T14:09:01;26.80;44.70
21807;DHT22;11065;50.786;7.840;2023-08-01T14:11:30;26.80;44.40
21807;DHT22;11065;50.786;7.840;2023-08-01T14:13:58;26.80;44.70
21807;DHT22;11065;50.786;7.840;2023-08-01T14:16:27;26.80;44.80
21807;DHT22;11065;50.786;7.840;2023-08-01T14:18:55;26.80;44.70
21807;DHT22;11065;50.786;7.840;2023-08-01T14:21:23;26.80;44.70
21807;DHT22;11065;50.786;7.840;2023-08-01T14:23:51;26.80;44.50
21807;DHT22;11065;50.786;7.840;2023-08-01T14:26:19;26.70;44.70
21807;DHT22;11065;50.786;7.840;2023-08-01T14:28:48;26.60;44.60
21807;DHT22;11065;50.786;7.840;2023-08-01T14:31:16;26.60;44.80
21807;DHT22;11065;50.786;7.840;2023-08-01T14:33:45;26.60;44.80
21807;DHT22;11065;50.786;7.840;2023-08-01T14:36:13;26.50;44.70
21807;DHT22;11065;50.786;7.840;2023-08-01T14:38:41;26.50;44.80
21807;DHT22;11065;50.786;7.840;2023-08-01T14:41:09;26.60;45.00
21807;DHT22;11065;50.786;7.840;2023-08-01T14:43:58;26.60;45.00
21807;DHT22;11065;50.786;7.840;2023-08-01T14:46:26;26.70;45.30
21807;DHT22;11065;50.786;7.840;2023-08-01T14:48:54;26.80;45.80
21807;DHT22;11065;50.786;7.840;2023-08-01T14:51:23;27.00;45.50
21807;DHT22;11065;50.786;7.840;2023-08-01T14:53:51;27.10;44.50
21807;DHT22;11065;50.786;7.840;2023-08-01T14:56:19;27.20;43.70
21807;DHT22;11065;50.786;7.840;2023-08-01T14:58:47;27.10;42.80
21807;DHT22;11065;50.786;7.840;2023-08-01T15:01:16;27.00;42.60
21807;DHT22;11065;50.786;7.840;2023-08-01T15:03:45;26.80;42.30
21807;DHT22;11065;50.786;7.840;2023-08-01T15:06:13;26.70;42.40
21807;DHT22;11065;50.786;7.840;2023-08-01T15:08:42;26.50;42.20
21807;DHT22;11065;50.786;7.840;2023-08-01T15:11:10;26.30;42.10
21807;DHT22;11065;50.786;7.840;2023-08-01T15:13:37;26.10;42.20
21807;DHT22;11065;50.786;7.840;2023-08-01T15:16:09;25.90;42.50
21807;DHT22;11065;50.786;7.840;2023-08-01T15:18:40;25.60;42.70
21807;DHT22;11065;50.786;7.840;2023-08-01T15:21:08;25.40;43.20
21807;DHT22;11065;50.786;7.840;2023-08-01T15:23:36;25.20;43.40
21807;DHT22;11065;50.786;7.840;2023-08-01T15:26:04;24.80;43.70
21807;DHT22;11065;50.786;7.840;2023-08-01T15:28:32;24.70;44.00
21807;DHT22;11065;50.786;7.840;2023-08-01T15:31:04;24.50;44.40
21807;DHT22;11065;50.786;7.840;2023-08-01T15:33:33;24.40;44.90
21807;DHT22;11065;50.786;7.840;2023-08-01T15:36:04;24.30;44.80
21807;DHT22;11065;50.786;7.840;2023-08-01T15:38:34;24.20;45.00
21807;DHT22;11065;50.786;7.840;2023-08-01T15:41:02;24.20;45.30